Terminal Aerodrome Forecast
Issued by NWS

Home | Current Version | Previous Version | Text Only | Print | Product List | Glossary On
Versions: 1 2 3 4 5 6 7 8 9 10 11 12 13 14 15 16 17 18 19 20 21
439
FTUS46 KSGX 232335
TAFPSP
TAF
KPSP 232335Z 2400/2424 23004KT P6SM -SHRA SCT050 BKN070 OVC080
     FM240600 35007KT P6SM SCT030 SCT050
     FM241800 13005KT P6SM SCT050=

USA.gov is the U.S. government's official web portal to all federal, state and local government web resources and services.